createdAt,value
2022-08-17T00:02:26.078Z,25.50
2022-08-17T00:04:53.856Z,25.50
2022-08-17T00:07:20.793Z,25.50
2022-08-17T00:09:47.529Z,25.50
2022-08-17T00:12:43.070Z,25.50
2022-08-17T00:15:01.499Z,25.40
2022-08-17T00:17:29.161Z,25.40
2022-08-17T00:19:55.973Z,25.40
2022-08-17T00:22:33.076Z,25.30
2022-08-17T00:25:07.500Z,25.30
2022-08-17T00:27:34.922Z,25.30
2022-08-17T00:30:01.827Z,25.30
2022-08-17T00:33:22.894Z,25.20
2022-08-17T00:35:19.608Z,25.20
2022-08-17T00:37:46.363Z,25.20
2022-08-17T00:40:15.153Z,25.20
2022-08-17T00:42:43.480Z,25.20
2022-08-17T00:45:12.777Z,25.10
2022-08-17T00:47:40.204Z,25.20
2022-08-17T00:50:10.453Z,25.10
2022-08-17T00:52:42.976Z,25.10
2022-08-17T00:55:10.577Z,25.10
2022-08-17T00:57:46.850Z,25.10
2022-08-17T01:00:28.720Z,25.10
2022-08-17T01:03:13.999Z,25.10
2022-08-17T01:05:42.241Z,25.00
2022-08-17T01:08:13.425Z,25.00
2022-08-17T01:11:00.335Z,25.00
2022-08-17T01:13:35.499Z,25.00
2022-08-17T01:16:13.455Z,25.00
2022-08-17T01:18:40.329Z,24.90
2022-08-17T01:21:20.467Z,24.90
2022-08-17T01:23:47.260Z,24.90
2022-08-17T01:26:13.957Z,24.90
2022-08-17T01:28:55.030Z,24.90
2022-08-17T01:31:25.067Z,24.90
2022-08-17T01:33:52.160Z,24.90
2022-08-17T01:36:19.019Z,24.90
2022-08-17T01:38:45.787Z,24.90
2022-08-17T01:41:15.587Z,24.80
2022-08-17T01:43:53.756Z,24.80
2022-08-17T01:46:24.958Z,24.80
2022-08-17T01:48:51.753Z,24.80
2022-08-17T01:51:19.955Z,24.80
2022-08-17T01:53:57.917Z,24.90
2022-08-17T01:56:26.342Z,24.80
2022-08-17T01:58:53.143Z,24.80
2022-08-17T02:01:24.399Z,24.70
2022-08-17T02:03:59.344Z,24.70
2022-08-17T02:06:52.960Z,24.70
2022-08-17T02:09:26.195Z,24.70
2022-08-17T02:11:58.287Z,24.60
2022-08-17T02:14:25.823Z,24.70
2022-08-17T02:16:53.812Z,24.70
2022-08-17T02:19:21.814Z,24.70
2022-08-17T02:21:51.189Z,24.60
2022-08-17T02:24:59.779Z,24.60
2022-08-17T02:27:10.326Z,24.70
2022-08-17T02:29:37.681Z,24.60
2022-08-17T02:32:05.798Z,24.70
2022-08-17T02:34:32.907Z,24.60
2022-08-17T02:36:59.828Z,24.60
2022-08-17T02:39:26.660Z,24.50
2022-08-17T02:42:01.446Z,24.40
2022-08-17T02:44:39.639Z,24.60
2022-08-17T02:47:09.413Z,24.50
2022-08-17T02:49:37.127Z,24.50
2022-08-17T02:52:06.711Z,24.50
2022-08-17T02:54:39.187Z,24.50
2022-08-17T02:57:06.356Z,24.50
2022-08-17T02:59:33.212Z,24.40
2022-08-17T03:02:00.056Z,24.50
2022-08-17T03:04:27.124Z,24.40
2022-08-17T03:06:53.863Z,24.40
2022-08-17T03:09:20.643Z,24.20
2022-08-17T03:11:47.635Z,24.40
2022-08-17T03:14:19.896Z,24.30
2022-08-17T03:16:53.770Z,24.40
2022-08-17T03:19:21.156Z,24.30
2022-08-17T03:21:54.864Z,24.30
2022-08-17T03:24:28.795Z,24.30
2022-08-17T03:26:56.139Z,24.20
2022-08-17T03:29:22.892Z,24.30
2022-08-17T03:31:50.139Z,24.30
2022-08-17T03:34:17.273Z,24.20
2022-08-17T03:36:44.513Z,24.20
2022-08-17T03:39:11.296Z,24.10
2022-08-17T03:41:39.129Z,24.10
2022-08-17T03:44:05.960Z,24.10
2022-08-17T03:46:51.520Z,24.10
2022-08-17T03:49:37.137Z,24.10
2022-08-17T03:52:22.489Z,24.10
2022-08-17T03:55:08.122Z,24.00
2022-08-17T03:57:35.016Z,24.10
2022-08-17T04:00:01.936Z,24.00
2022-08-17T04:02:31.661Z,24.00
2022-08-17T04:04:59.219Z,24.00
2022-08-17T04:07:29.049Z,24.00
2022-08-17T04:09:57.895Z,24.20
2022-08-17T04:12:26.527Z,24.00
2022-08-17T04:14:54.906Z,24.00
2022-08-17T04:17:29.264Z,24.00
2022-08-17T04:19:56.341Z,24.00
2022-08-17T04:22:30.069Z,24.00
2022-08-17T04:24:58.767Z,24.00
2022-08-17T04:27:25.737Z,24.00
2022-08-17T04:29:55.639Z,24.10
2022-08-17T04:33:05.011Z,24.00
2022-08-17T04:35:10.692Z,24.10
2022-08-17T04:37:37.762Z,24.10
2022-08-17T04:40:25.910Z,24.20
2022-08-17T04:43:10.097Z,24.10
2022-08-17T04:45:55.700Z,24.20
2022-08-17T04:48:36.420Z,24.20
2022-08-17T04:51:10.702Z,24.30
2022-08-17T04:53:39.943Z,24.30
2022-08-17T04:56:07.536Z,24.30
2022-08-17T04:58:38.746Z,24.40
2022-08-17T05:01:07.172Z,24.40
2022-08-17T05:03:34.335Z,24.40
2022-08-17T05:06:01.354Z,24.50
2022-08-17T05:08:28.271Z,24.50
2022-08-17T05:10:55.049Z,24.60
2022-08-17T05:13:24.290Z,24.60
2022-08-17T05:15:56.051Z,24.70
2022-08-17T05:18:24.429Z,24.80
2022-08-17T05:20:52.638Z,24.80
2022-08-17T05:23:21.255Z,24.90
2022-08-17T05:25:50.755Z,24.90
2022-08-17T05:28:24.187Z,24.90
2022-08-17T05:30:56.723Z,25.00
2022-08-17T05:33:29.800Z,25.10
2022-08-17T05:35:59.335Z,25.20
2022-08-17T05:38:28.466Z,25.10
2022-08-17T05:40:56.018Z,25.30
2022-08-17T05:43:26.158Z,25.40
2022-08-17T05:46:12.308Z,25.50
2022-08-17T05:48:45.564Z,25.70
2022-08-17T05:51:39.034Z,25.80
2022-08-17T05:54:11.919Z,26.00
2022-08-17T05:56:53.033Z,26.10
2022-08-17T05:59:58.041Z,26.30
2022-08-17T06:02:49.739Z,26.50
2022-08-17T06:05:42.722Z,26.60
2022-08-17T06:08:23.185Z,26.80
2022-08-17T06:11:09.505Z,27.00
2022-08-17T06:13:57.434Z,27.00
2022-08-17T06:16:33.231Z,27.20
2022-08-17T06:19:13.270Z,27.20
2022-08-17T06:21:44.422Z,27.40
2022-08-17T06:24:31.407Z,27.50
2022-08-17T06:27:04.627Z,27.60
2022-08-17T06:29:38.709Z,27.80
2022-08-17T06:32:09.174Z,27.70
2022-08-17T06:34:40.119Z,27.90
2022-08-17T06:37:22.600Z,28.00
2022-08-17T06:40:12.452Z,28.00
2022-08-17T06:43:12.838Z,28.10
2022-08-17T06:45:49.464Z,28.20
2022-08-17T06:48:29.000Z,28.30
2022-08-17T06:51:00.761Z,28.40
2022-08-17T06:53:43.910Z,28.40
2022-08-17T06:56:14.156Z,28.50
2022-08-17T06:58:43.950Z,28.60
2022-08-17T07:01:15.378Z,28.70
2022-08-17T07:03:57.252Z,28.70
2022-08-17T07:06:29.365Z,28.80
2022-08-17T07:09:04.319Z,28.90
2022-08-17T07:11:50.439Z,29.00
2022-08-17T07:14:33.206Z,29.10
2022-08-17T07:17:07.018Z,29.20
2022-08-17T07:19:36.452Z,29.30
2022-08-17T07:22:17.017Z,29.40
2022-08-17T07:24:58.380Z,29.50
2022-08-17T07:27:37.880Z,29.60
2022-08-17T07:30:10.602Z,29.70
2022-08-17T07:32:46.230Z,29.80
2022-08-17T07:35:18.347Z,29.80
2022-08-17T07:38:07.387Z,29.90
2022-08-17T07:41:03.418Z,30.00
2022-08-17T07:43:33.917Z,30.10
2022-08-17T07:46:39.444Z,30.20
2022-08-17T07:49:09.086Z,30.20
2022-08-17T07:51:45.758Z,30.40
2022-08-17T07:54:15.533Z,30.40
2022-08-17T07:56:48.588Z,30.50
2022-08-17T07:59:28.646Z,30.60
2022-08-17T08:02:05.396Z,30.70
2022-08-17T08:07:34.821Z,30.90
2022-08-17T08:10:11.247Z,31.00
2022-08-17T08:12:41.643Z,31.10
2022-08-17T08:15:19.385Z,31.10
2022-08-17T08:17:58.619Z,31.20
2022-08-17T08:20:52.497Z,31.30
2022-08-17T08:23:33.603Z,31.30
2022-08-17T08:26:05.422Z,31.40
2022-08-17T08:28:54.983Z,31.50
2022-08-17T08:32:01.657Z,31.60
2022-08-17T08:35:01.801Z,31.60
2022-08-17T08:37:52.240Z,31.70
2022-08-17T08:40:44.937Z,31.70
2022-08-17T08:43:43.969Z,31.80
2022-08-17T08:46:37.544Z,31.80
2022-08-17T08:49:12.019Z,31.90
2022-08-17T08:51:42.069Z,32.00
2022-08-17T08:54:38.982Z,32.00
2022-08-17T09:00:20.240Z,32.00
2022-08-17T09:02:59.100Z,32.10
2022-08-17T09:05:31.944Z,32.00
2022-08-17T09:08:04.779Z,32.20
2022-08-17T09:11:10.870Z,32.20
2022-08-17T09:13:54.646Z,32.30
2022-08-17T09:16:29.735Z,32.30
2022-08-17T09:19:04.913Z,32.40
2022-08-17T09:21:48.208Z,32.50
2022-08-17T09:24:37.680Z,32.50
2022-08-17T09:27:11.252Z,32.60
2022-08-17T09:29:43.452Z,32.60
2022-08-17T09:32:31.515Z,32.70
2022-08-17T09:35:03.824Z,32.70
2022-08-17T09:37:58.320Z,32.60
2022-08-17T09:40:32.903Z,32.80
2022-08-17T09:43:06.634Z,32.90
2022-08-17T09:45:57.737Z,32.90
2022-08-17T09:48:28.434Z,33.00
2022-08-17T09:51:06.472Z,33.00
2022-08-17T09:53:36.621Z,33.00
2022-08-17T09:56:36.581Z,33.00
2022-08-17T09:59:27.562Z,33.10
2022-08-17T10:02:33.342Z,33.10
2022-08-17T10:05:17.943Z,33.10
2022-08-17T10:07:56.096Z,33.20
2022-08-17T10:10:33.682Z,33.30
2022-08-17T10:13:34.395Z,33.40
2022-08-17T10:16:33.821Z,33.50
2022-08-17T10:19:35.850Z,33.60
2022-08-17T10:22:47.836Z,33.70
2022-08-17T10:25:54.034Z,33.80
2022-08-17T10:28:30.413Z,33.90
2022-08-17T10:31:30.763Z,34.00
2022-08-17T10:34:02.789Z,34.10
2022-08-17T10:36:52.512Z,34.10
2022-08-17T10:39:30.692Z,34.20
2022-08-17T10:42:03.339Z,34.30
2022-08-17T10:44:56.210Z,34.40
2022-08-17T10:47:27.507Z,34.40
2022-08-17T10:49:56.288Z,34.40
2022-08-17T10:52:25.119Z,34.40
2022-08-17T10:55:13.447Z,34.50
2022-08-17T10:57:43.237Z,34.50
2022-08-17T11:00:36.204Z,34.50
2022-08-17T11:03:17.213Z,34.60
2022-08-17T11:05:56.429Z,34.60
2022-08-17T11:08:44.933Z,34.70
2022-08-17T11:11:45.381Z,34.70
2022-08-17T11:14:17.430Z,34.80
2022-08-17T11:17:24.412Z,34.90
2022-08-17T11:20:09.651Z,35.00
2022-08-17T11:22:50.156Z,35.10
2022-08-17T11:25:20.358Z,35.20
2022-08-17T11:27:53.824Z,35.20
2022-08-17T11:30:53.809Z,35.30
2022-08-17T11:33:29.782Z,35.40
2022-08-17T11:36:06.367Z,35.40
2022-08-17T11:38:57.867Z,35.40
2022-08-17T11:41:48.832Z,35.40
2022-08-17T11:44:37.655Z,35.40
2022-08-17T11:48:27.396Z,35.30
2022-08-17T11:51:19.086Z,35.30
2022-08-17T11:53:45.942Z,35.30
2022-08-17T11:56:35.657Z,35.30
2022-08-17T11:59:02.937Z,35.40
2022-08-17T12:01:32.651Z,35.50
2022-08-17T12:04:24.813Z,35.60
2022-08-17T12:07:00.931Z,35.70
2022-08-17T12:09:32.064Z,35.80
2022-08-17T12:12:14.632Z,35.90
2022-08-17T12:15:09.435Z,36.00
2022-08-17T12:17:41.364Z,36.00
2022-08-17T12:20:21.495Z,36.10
2022-08-17T12:23:03.695Z,36.10
2022-08-17T12:25:40.161Z,36.10
2022-08-17T12:28:22.973Z,36.10
2022-08-17T12:30:52.042Z,36.10
2022-08-17T12:33:28.478Z,36.10
2022-08-17T12:36:00.108Z,36.10
2022-08-17T12:38:32.335Z,36.10
2022-08-17T12:41:21.816Z,36.00
2022-08-17T12:44:03.728Z,36.10
2022-08-17T12:46:47.017Z,36.10
2022-08-17T12:49:19.696Z,36.10
2022-08-17T12:51:48.003Z,36.10
2022-08-17T12:54:25.035Z,36.10
2022-08-17T12:56:52.515Z,36.10
2022-08-17T12:59:30.297Z,36.20
2022-08-17T13:01:57.917Z,36.20
2022-08-17T13:04:26.532Z,36.30
2022-08-17T13:06:59.578Z,36.40
2022-08-17T13:09:36.038Z,36.40
2022-08-17T13:12:08.131Z,36.40
2022-08-17T13:14:35.419Z,36.40
2022-08-17T13:17:09.724Z,36.30
2022-08-17T13:19:48.345Z,36.30
2022-08-17T13:22:15.107Z,36.20
2022-08-17T13:25:00.779Z,36.10
2022-08-17T13:27:29.107Z,36.10
2022-08-17T13:30:00.359Z,36.00
2022-08-17T13:32:45.655Z,36.00
2022-08-17T13:35:39.502Z,36.00
2022-08-17T13:38:16.480Z,36.00
2022-08-17T13:40:49.254Z,36.00
2022-08-17T13:43:44.786Z,36.00
2022-08-17T13:46:24.964Z,35.90
2022-08-17T13:49:11.937Z,36.00
2022-08-17T13:51:44.988Z,36.00
2022-08-17T13:54:32.659Z,36.00
2022-08-17T13:57:02.439Z,36.00
2022-08-17T13:59:54.656Z,36.00
2022-08-17T14:02:25.877Z,36.00
2022-08-17T14:04:54.558Z,35.90
2022-08-17T14:07:31.184Z,35.90
2022-08-17T14:10:07.884Z,35.90
2022-08-17T14:12:35.323Z,36.00
2022-08-17T14:15:02.586Z,35.90
2022-08-17T14:17:36.304Z,36.00
2022-08-17T14:20:10.596Z,36.00
2022-08-17T14:22:40.429Z,36.00
2022-08-17T14:25:08.673Z,36.10
2022-08-17T14:27:41.703Z,36.10
2022-08-17T14:30:25.649Z,36.10
2022-08-17T14:32:54.500Z,35.70
2022-08-17T14:35:24.297Z,36.10
2022-08-17T14:37:52.331Z,36.10
2022-08-17T14:40:24.544Z,36.10
2022-08-17T14:42:53.343Z,36.10
2022-08-17T14:45:32.242Z,36.10
2022-08-17T14:48:04.479Z,36.20
2022-08-17T14:50:31.709Z,36.30
2022-08-17T14:52:59.266Z,36.30
2022-08-17T14:55:30.235Z,36.40
2022-08-17T14:57:57.285Z,36.40
2022-08-17T15:00:24.198Z,36.40
2022-08-17T15:02:54.666Z,36.50
2022-08-17T15:05:23.577Z,36.50
2022-08-17T15:07:50.938Z,36.40
2022-08-17T15:10:17.836Z,36.40
2022-08-17T15:12:44.752Z,36.40
2022-08-17T15:15:15.040Z,36.40
2022-08-17T15:17:45.872Z,36.30
2022-08-17T15:20:18.780Z,36.30
2022-08-17T15:22:46.697Z,36.30
2022-08-17T15:25:13.850Z,36.20
2022-08-17T15:27:41.307Z,36.20
2022-08-17T15:30:09.964Z,36.10
2022-08-17T15:32:39.311Z,36.20
2022-08-17T15:35:09.183Z,36.10
2022-08-17T15:37:36.571Z,36.10
2022-08-17T15:40:05.340Z,36.10
2022-08-17T15:42:32.373Z,36.10
2022-08-17T15:45:00.610Z,35.90
2022-08-17T15:47:27.423Z,36.00
2022-08-17T15:49:59.424Z,36.00
2022-08-17T15:52:30.069Z,36.00
2022-08-17T15:54:59.684Z,36.00
2022-08-17T15:57:27.747Z,36.00
2022-08-17T15:59:58.672Z,35.90
2022-08-17T16:03:46.107Z,35.90
2022-08-17T16:05:24.739Z,35.80
2022-08-17T16:07:52.274Z,35.80
2022-08-17T16:10:19.769Z,35.80
2022-08-17T16:12:48.207Z,35.80
2022-08-17T16:15:16.218Z,35.80
2022-08-17T16:17:43.049Z,35.80
2022-08-17T16:20:20.223Z,35.60
2022-08-17T16:22:49.950Z,35.70
2022-08-17T16:25:51.951Z,35.70
2022-08-17T16:28:11.487Z,35.70
2022-08-17T16:30:38.340Z,35.60
2022-08-17T16:33:05.761Z,35.60
2022-08-17T16:35:33.606Z,35.60
2022-08-17T16:38:00.437Z,35.60
2022-08-17T16:40:29.121Z,35.60
2022-08-17T16:42:57.997Z,35.60
2022-08-17T16:45:27.950Z,35.60
2022-08-17T16:47:57.927Z,35.40
2022-08-17T16:50:25.119Z,35.50
2022-08-17T16:52:52.138Z,35.50
2022-08-17T16:55:21.584Z,35.40
2022-08-17T16:57:50.347Z,35.40
2022-08-17T17:00:19.453Z,35.30
2022-08-17T17:02:48.234Z,35.30
2022-08-17T17:05:34.235Z,35.20
2022-08-17T17:08:04.861Z,35.20
2022-08-17T17:10:38.903Z,35.40
2022-08-17T17:13:12.604Z,35.00
2022-08-17T17:15:59.549Z,35.00
2022-08-17T17:18:37.628Z,35.00
2022-08-17T17:21:06.471Z,35.00
2022-08-17T17:23:50.022Z,34.90
2022-08-17T17:26:55.352Z,34.90
2022-08-17T17:29:48.228Z,34.80
2022-08-17T17:32:26.156Z,34.80
2022-08-17T17:35:00.770Z,34.60
2022-08-17T17:37:33.823Z,34.60
2022-08-17T17:40:06.317Z,34.50
2022-08-17T17:42:33.553Z,34.50
2022-08-17T17:45:05.482Z,34.50
2022-08-17T17:47:33.258Z,34.30
2022-08-17T17:50:01.763Z,34.30
2022-08-17T17:52:47.521Z,34.20
2022-08-17T17:55:27.862Z,34.10
2022-08-17T17:58:19.682Z,34.00
2022-08-17T18:01:06.875Z,33.90
2022-08-17T18:03:56.669Z,33.80
2022-08-17T18:06:45.332Z,33.70
2022-08-17T18:09:52.002Z,33.60
2022-08-17T18:12:33.308Z,33.50
2022-08-17T18:15:09.901Z,33.40
2022-08-17T18:17:36.877Z,33.30
2022-08-17T18:20:06.941Z,33.20
2022-08-17T18:22:33.841Z,33.10
2022-08-17T18:25:00.815Z,33.00
2022-08-17T18:27:34.497Z,32.90
2022-08-17T18:30:23.534Z,32.80
2022-08-17T18:32:50.306Z,32.70
2022-08-17T18:35:19.825Z,32.60
2022-08-17T18:37:49.625Z,32.50
2022-08-17T18:40:16.477Z,32.50
2022-08-17T18:42:58.294Z,32.40
2022-08-17T18:45:48.445Z,32.30
2022-08-17T18:48:36.799Z,32.20
2022-08-17T18:51:39.957Z,32.20
2022-08-17T18:54:22.105Z,32.10
2022-08-17T18:56:59.273Z,32.00
2022-08-17T18:59:42.077Z,31.90
2022-08-17T19:02:32.570Z,31.90
2022-08-17T19:05:24.706Z,31.80
2022-08-17T19:07:52.149Z,31.70
2022-08-17T19:10:32.551Z,31.70
2022-08-17T19:13:24.388Z,31.60
2022-08-17T19:16:16.071Z,31.60
2022-08-17T19:18:52.747Z,31.50
2022-08-17T19:21:37.865Z,31.40
2022-08-17T19:24:20.962Z,31.30
2022-08-17T19:26:57.730Z,31.30
2022-08-17T19:29:36.384Z,31.20
2022-08-17T19:32:06.257Z,31.20
2022-08-17T19:34:35.380Z,31.10
2022-08-17T19:37:09.007Z,31.10
2022-08-17T19:39:48.040Z,31.10
2022-08-17T19:42:51.625Z,31.00
2022-08-17T19:45:33.190Z,31.00
2022-08-17T19:48:18.746Z,31.00
2022-08-17T19:51:13.674Z,31.00
2022-08-17T19:54:08.476Z,30.90
2022-08-17T19:56:47.893Z,30.90
2022-08-17T20:00:02.025Z,30.90
2022-08-17T20:02:49.965Z,30.90
2022-08-17T20:05:26.158Z,30.90
2022-08-17T20:08:04.021Z,30.80
2022-08-17T20:10:55.331Z,30.80
2022-08-17T20:13:34.065Z,30.80
2022-08-17T20:16:02.415Z,30.80
2022-08-17T20:18:48.307Z,30.80
2022-08-17T20:21:34.289Z,30.70
2022-08-17T20:24:21.875Z,30.70
2022-08-17T20:27:09.098Z,30.70
2022-08-17T20:30:27.240Z,30.70
2022-08-17T20:32:58.167Z,30.60
2022-08-17T20:35:38.852Z,30.60
2022-08-17T20:38:10.511Z,30.60
2022-08-17T20:40:54.273Z,30.60
2022-08-17T20:43:33.496Z,30.50
2022-08-17T20:46:34.252Z,30.50
2022-08-17T20:49:22.670Z,30.50
2022-08-17T20:52:02.819Z,30.50
2022-08-17T20:54:41.955Z,30.40
2022-08-17T20:57:29.515Z,30.40
2022-08-17T21:00:18.190Z,30.40
2022-08-17T21:02:50.559Z,30.30
2022-08-17T21:05:26.638Z,30.30
2022-08-17T21:08:00.847Z,30.30
2022-08-17T21:10:27.524Z,30.20
2022-08-17T21:13:16.146Z,30.20
2022-08-17T21:16:02.753Z,30.10
2022-08-17T21:18:49.043Z,30.10
2022-08-17T21:21:24.678Z,30.00
2022-08-17T21:24:11.669Z,30.00
2022-08-17T21:26:55.632Z,30.00
2022-08-17T21:29:31.136Z,29.90
2022-08-17T21:31:59.520Z,29.90
2022-08-17T21:34:42.564Z,29.80
2022-08-17T21:37:24.174Z,29.80
2022-08-17T21:40:18.282Z,29.80
2022-08-17T21:42:50.536Z,29.70
2022-08-17T21:45:24.036Z,29.70
2022-08-17T21:48:06.761Z,29.60
2022-08-17T21:50:34.280Z,29.60
2022-08-17T21:53:02.644Z,29.60
2022-08-17T21:55:31.467Z,29.60
2022-08-17T21:58:13.398Z,29.50
2022-08-17T22:00:44.599Z,29.50
2022-08-17T22:03:23.611Z,29.50
2022-08-17T22:05:51.345Z,29.50
2022-08-17T22:08:24.381Z,29.50
2022-08-17T22:11:00.685Z,29.40
2022-08-17T22:13:29.610Z,29.40
2022-08-17T22:16:29.552Z,29.40
2022-08-17T22:18:58.767Z,29.30
2022-08-17T22:21:26.143Z,29.30
2022-08-17T22:24:05.487Z,29.40
2022-08-17T22:26:59.444Z,29.30
2022-08-17T22:29:46.694Z,29.30
2022-08-17T22:32:34.920Z,29.20
2022-08-17T22:35:30.010Z,29.20
2022-08-17T22:37:57.369Z,29.20
2022-08-17T22:40:34.500Z,29.20
2022-08-17T22:43:03.407Z,29.20
2022-08-17T22:45:31.091Z,29.10
2022-08-17T22:48:02.005Z,29.10
2022-08-17T22:50:31.249Z,29.20
2022-08-17T22:53:22.748Z,29.10
2022-08-17T22:56:15.174Z,29.10
2022-08-17T22:59:10.922Z,29.00
2022-08-17T23:01:39.135Z,29.00
2022-08-17T23:04:11.912Z,29.00
2022-08-17T23:06:42.296Z,28.90
2022-08-17T23:09:09.542Z,28.90
2022-08-17T23:11:49.903Z,28.90
2022-08-17T23:14:19.796Z,28.90
2022-08-17T23:16:48.743Z,28.80
2022-08-17T23:19:19.335Z,28.80
2022-08-17T23:21:46.799Z,28.90
2022-08-17T23:24:26.934Z,28.80
2022-08-17T23:26:54.718Z,28.80
2022-08-17T23:29:21.598Z,28.70
2022-08-17T23:31:50.563Z,28.70
2022-08-17T23:34:18.524Z,28.70
2022-08-17T23:36:53.191Z,28.70
2022-08-17T23:39:27.328Z,28.70
2022-08-17T23:41:57.801Z,28.70
2022-08-17T23:44:25.590Z,28.60
2022-08-17T23:46:53.364Z,28.60
2022-08-17T23:49:20.471Z,28.70
2022-08-17T23:51:48.611Z,28.70
2022-08-17T23:54:25.970Z,28.60
2022-08-17T23:56:52.894Z,28.60
2022-08-17T23:59:21.277Z,28.50
